sensor_id;sensor_type;location;lat;lon;timestamp;P1;durP1;ratioP1;P2;durP2;ratioP2
12155;SDS011;6141;49.092;8.516;2022-11-20T00:14:33;11.90;;;10.70;;
12155;SDS011;6141;49.092;8.516;2022-11-20T00:17:02;11.67;;;10.47;;
12155;SDS011;6141;49.092;8.516;2022-11-20T00:29:29;11.47;;;10.23;;
12155;SDS011;6141;49.092;8.516;2022-11-20T00:31:57;11.57;;;10.17;;
12155;SDS011;6141;49.092;8.516;2022-11-20T00:34:26;12.07;;;10.77;;
12155;SDS011;6141;49.092;8.516;2022-11-20T00:36:55;10.87;;;9.60;;
12155;SDS011;6141;49.092;8.516;2022-11-20T00:39:24;12.20;;;10.77;;
12155;SDS011;6141;49.092;8.516;2022-11-20T00:41:52;11.53;;;10.33;;
12155;SDS011;6141;49.092;8.516;2022-11-20T00:44:21;11.83;;;10.57;;
12155;SDS011;6141;49.092;8.516;2022-11-20T01:26:43;14.15;;;11.45;;
12155;SDS011;6141;49.092;8.516;2022-11-20T01:29:15;15.67;;;13.23;;
12155;SDS011;6141;49.092;8.516;2022-11-20T01:31:45;15.45;;;13.05;;
12155;SDS011;6141;49.092;8.516;2022-11-20T01:34:15;14.13;;;12.63;;
12155;SDS011;6141;49.092;8.516;2022-11-20T01:36:46;14.77;;;12.93;;
12155;SDS011;6141;49.092;8.516;2022-11-20T01:39:19;14.37;;;12.63;;
12155;SDS011;6141;49.092;8.516;2022-11-20T01:41:50;16.03;;;13.37;;
12155;SDS011;6141;49.092;8.516;2022-11-20T01:44:51;14.13;;;12.60;;
12155;SDS011;6141;49.092;8.516;2022-11-20T01:47:27;15.17;;;12.90;;
12155;SDS011;6141;49.092;8.516;2022-11-20T04:46:15;5.73;;;5.20;;
12155;SDS011;6141;49.092;8.516;2022-11-20T04:48:45;6.40;;;5.70;;
12155;SDS011;6141;49.092;8.516;2022-11-20T04:51:14;6.17;;;5.57;;
12155;SDS011;6141;49.092;8.516;2022-11-20T04:53:43;6.73;;;5.03;;
12155;SDS011;6141;49.092;8.516;2022-11-20T04:56:12;7.15;;;5.80;;
12155;SDS011;6141;49.092;8.516;2022-11-20T05:21:06;7.90;;;5.20;;
12155;SDS011;6141;49.092;8.516;2022-11-20T05:23:36;7.40;;;4.73;;
12155;SDS011;6141;49.092;8.516;2022-11-20T05:26:06;5.97;;;4.87;;
12155;SDS011;6141;49.092;8.516;2022-11-20T05:28:36;6.33;;;4.67;;
12155;SDS011;6141;49.092;8.516;2022-11-20T05:31:05;6.00;;;5.23;;
12155;SDS011;6141;49.092;8.516;2022-11-20T05:33:38;7.13;;;4.73;;
12155;SDS011;6141;49.092;8.516;2022-11-20T06:11:03;5.85;;;4.20;;
12155;SDS011;6141;49.092;8.516;2022-11-20T06:13:33;5.83;;;4.00;;
12155;SDS011;6141;49.092;8.516;2022-11-20T06:16:08;4.40;;;4.00;;
12155;SDS011;6141;49.092;8.516;2022-11-20T06:18:37;4.07;;;3.67;;
12155;SDS011;6141;49.092;8.516;2022-11-20T06:21:09;6.23;;;4.10;;
12155;SDS011;6141;49.092;8.516;2022-11-20T06:23:39;5.10;;;3.70;;
12155;SDS011;6141;49.092;8.516;2022-11-20T06:26:08;4.83;;;4.00;;
12155;SDS011;6141;49.092;8.516;2022-11-20T06:28:39;9.73;;;3.47;;
12155;SDS011;6141;49.092;8.516;2022-11-20T06:31:10;5.30;;;3.50;;
12155;SDS011;6141;49.092;8.516;2022-11-20T06:33:40;5.57;;;4.00;;
12155;SDS011;6141;49.092;8.516;2022-11-20T06:36:11;5.00;;;4.15;;
12155;SDS011;6141;49.092;8.516;2022-11-20T06:38:41;3.67;;;3.20;;
12155;SDS011;6141;49.092;8.516;2022-11-20T06:41:11;4.00;;;3.60;;
12155;SDS011;6141;49.092;8.516;2022-11-20T06:46:11;5.30;;;4.07;;
12155;SDS011;6141;49.092;8.516;2022-11-20T06:51:10;5.93;;;3.80;;
12155;SDS011;6141;49.092;8.516;2022-11-20T06:53:39;4.10;;;3.60;;
12155;SDS011;6141;49.092;8.516;2022-11-20T06:56:08;3.93;;;3.43;;
12155;SDS011;6141;49.092;8.516;2022-11-20T06:58:37;5.03;;;3.60;;
12155;SDS011;6141;49.092;8.516;2022-11-20T07:01:07;5.00;;;3.73;;
12155;SDS011;6141;49.092;8.516;2022-11-20T07:03:37;5.00;;;3.60;;
12155;SDS011;6141;49.092;8.516;2022-11-20T07:06:07;3.67;;;3.23;;
12155;SDS011;6141;49.092;8.516;2022-11-20T07:08:38;4.20;;;3.67;;
12155;SDS011;6141;49.092;8.516;2022-11-20T07:11:06;3.80;;;3.40;;
12155;SDS011;6141;49.092;8.516;2022-11-20T07:13:35;3.77;;;3.30;;
12155;SDS011;6141;49.092;8.516;2022-11-20T07:16:05;4.77;;;3.40;;
12155;SDS011;6141;49.092;8.516;2022-11-20T07:18:36;4.23;;;3.40;;
12155;SDS011;6141;49.092;8.516;2022-11-20T07:21:06;5.17;;;3.40;;
12155;SDS011;6141;49.092;8.516;2022-11-20T07:23:38;6.00;;;3.40;;
12155;SDS011;6141;49.092;8.516;2022-11-20T07:26:08;3.63;;;3.20;;
12155;SDS011;6141;49.092;8.516;2022-11-20T07:28:38;3.40;;;3.00;;
12155;SDS011;6141;49.092;8.516;2022-11-20T07:31:08;4.23;;;3.10;;
12155;SDS011;6141;49.092;8.516;2022-11-20T07:33:44;4.10;;;3.03;;
12155;SDS011;6141;49.092;8.516;2022-11-20T07:36:13;4.57;;;3.50;;
12155;SDS011;6141;49.092;8.516;2022-11-20T07:38:43;3.50;;;3.20;;
12155;SDS011;6141;49.092;8.516;2022-11-20T07:41:11;5.10;;;3.43;;
12155;SDS011;6141;49.092;8.516;2022-11-20T07:43:40;4.73;;;3.20;;
12155;SDS011;6141;49.092;8.516;2022-11-20T07:46:09;3.87;;;3.40;;
12155;SDS011;6141;49.092;8.516;2022-11-20T07:48:38;3.73;;;3.43;;
12155;SDS011;6141;49.092;8.516;2022-11-20T07:51:07;3.40;;;3.10;;
12155;SDS011;6141;49.092;8.516;2022-11-20T07:53:36;4.67;;;3.07;;
12155;SDS011;6141;49.092;8.516;2022-11-20T07:56:07;5.83;;;3.70;;
12155;SDS011;6141;49.092;8.516;2022-11-20T07:58:36;3.97;;;3.47;;
12155;SDS011;6141;49.092;8.516;2022-11-20T08:01:05;3.80;;;3.40;;
12155;SDS011;6141;49.092;8.516;2022-11-20T08:03:35;4.83;;;3.67;;
12155;SDS011;6141;49.092;8.516;2022-11-20T08:06:06;4.63;;;3.77;;
12155;SDS011;6141;49.092;8.516;2022-11-20T08:08:35;4.10;;;3.60;;
12155;SDS011;6141;49.092;8.516;2022-11-20T08:11:13;7.20;;;3.73;;
12155;SDS011;6141;49.092;8.516;2022-11-20T08:14:00;6.40;;;4.10;;
12155;SDS011;6141;49.092;8.516;2022-11-20T08:16:41;4.70;;;3.93;;
12155;SDS011;6141;49.092;8.516;2022-11-20T08:19:11;4.77;;;4.03;;
12155;SDS011;6141;49.092;8.516;2022-11-20T08:21:41;4.67;;;4.17;;
12155;SDS011;6141;49.092;8.516;2022-11-20T08:24:10;5.60;;;4.33;;
12155;SDS011;6141;49.092;8.516;2022-11-20T08:26:41;5.93;;;4.10;;
12155;SDS011;6141;49.092;8.516;2022-11-20T08:29:10;5.27;;;4.33;;
12155;SDS011;6141;49.092;8.516;2022-11-20T08:31:39;5.63;;;4.50;;
12155;SDS011;6141;49.092;8.516;2022-11-20T08:34:07;5.73;;;4.47;;
12155;SDS011;6141;49.092;8.516;2022-11-20T08:36:43;4.63;;;4.20;;
12155;SDS011;6141;49.092;8.516;2022-11-20T08:39:15;4.63;;;3.97;;
12155;SDS011;6141;49.092;8.516;2022-11-20T08:41:45;4.93;;;4.43;;
12155;SDS011;6141;49.092;8.516;2022-11-20T08:44:14;5.57;;;4.33;;
12155;SDS011;6141;49.092;8.516;2022-11-20T08:46:42;6.37;;;4.40;;
12155;SDS011;6141;49.092;8.516;2022-11-20T08:49:12;5.10;;;4.60;;
12155;SDS011;6141;49.092;8.516;2022-11-20T08:51:42;5.17;;;4.40;;
12155;SDS011;6141;49.092;8.516;2022-11-20T08:54:11;4.80;;;4.30;;
12155;SDS011;6141;49.092;8.516;2022-11-20T08:56:40;5.40;;;4.30;;
12155;SDS011;6141;49.092;8.516;2022-11-20T08:59:10;5.83;;;4.83;;
12155;SDS011;6141;49.092;8.516;2022-11-20T09:01:59;5.60;;;4.80;;
12155;SDS011;6141;49.092;8.516;2022-11-20T09:04:28;7.27;;;4.47;;
12155;SDS011;6141;49.092;8.516;2022-11-20T09:06:57;5.17;;;4.67;;
12155;SDS011;6141;49.092;8.516;2022-11-20T09:09:28;7.53;;;5.27;;
12155;SDS011;6141;49.092;8.516;2022-11-20T09:11:57;7.57;;;5.33;;
12155;SDS011;6141;49.092;8.516;2022-11-20T09:14:27;5.10;;;4.63;;
12155;SDS011;6141;49.092;8.516;2022-11-20T09:16:56;8.70;;;4.73;;
12155;SDS011;6141;49.092;8.516;2022-11-20T09:19:25;4.13;;;3.67;;
12155;SDS011;6141;49.092;8.516;2022-11-20T09:22:06;6.13;;;4.80;;
12155;SDS011;6141;49.092;8.516;2022-11-20T09:24:35;7.03;;;5.10;;
12155;SDS011;6141;49.092;8.516;2022-11-20T09:27:04;7.70;;;5.13;;
12155;SDS011;6141;49.092;8.516;2022-11-20T09:29:37;5.90;;;4.80;;
12155;SDS011;6141;49.092;8.516;2022-11-20T09:32:07;6.87;;;5.20;;
12155;SDS011;6141;49.092;8.516;2022-11-20T09:34:36;6.33;;;5.13;;
12155;SDS011;6141;49.092;8.516;2022-11-20T09:37:05;6.83;;;5.20;;
12155;SDS011;6141;49.092;8.516;2022-11-20T09:39:34;6.37;;;4.70;;
12155;SDS011;6141;49.092;8.516;2022-11-20T09:42:10;5.27;;;4.73;;
12155;SDS011;6141;49.092;8.516;2022-11-20T09:45:04;5.23;;;4.63;;
12155;SDS011;6141;49.092;8.516;2022-11-20T09:47:51;5.77;;;4.80;;
12155;SDS011;6141;49.092;8.516;2022-11-20T09:50:40;5.57;;;4.60;;
12155;SDS011;6141;49.092;8.516;2022-11-20T09:53:20;4.47;;;4.07;;
12155;SDS011;6141;49.092;8.516;2022-11-20T09:55:58;4.93;;;4.50;;
12155;SDS011;6141;49.092;8.516;2022-11-20T09:58:31;5.37;;;4.50;;
12155;SDS011;6141;49.092;8.516;2022-11-20T10:01:06;5.90;;;4.87;;
12155;SDS011;6141;49.092;8.516;2022-11-20T10:03:44;6.10;;;4.40;;
12155;SDS011;6141;49.092;8.516;2022-11-20T10:06:21;5.97;;;4.43;;
12155;SDS011;6141;49.092;8.516;2022-11-20T10:08:59;6.40;;;4.27;;
12155;SDS011;6141;49.092;8.516;2022-11-20T10:11:44;6.03;;;4.63;;
12155;SDS011;6141;49.092;8.516;2022-11-20T10:14:23;6.13;;;4.10;;
12155;SDS011;6141;49.092;8.516;2022-11-20T10:17:02;4.67;;;4.20;;
12155;SDS011;6141;49.092;8.516;2022-11-20T10:19:38;6.03;;;4.30;;
12155;SDS011;6141;49.092;8.516;2022-11-20T10:22:20;5.07;;;4.43;;
12155;SDS011;6141;49.092;8.516;2022-11-20T10:25:00;4.50;;;4.03;;
12155;SDS011;6141;49.092;8.516;2022-11-20T10:27:37;5.40;;;4.83;;
12155;SDS011;6141;49.092;8.516;2022-11-20T10:30:16;7.77;;;4.87;;
12155;SDS011;6141;49.092;8.516;2022-11-20T10:32:50;6.20;;;4.53;;
12155;SDS011;6141;49.092;8.516;2022-11-20T10:35:26;6.87;;;5.20;;
12155;SDS011;6141;49.092;8.516;2022-11-20T10:38:01;6.13;;;5.37;;
12155;SDS011;6141;49.092;8.516;2022-11-20T10:40:37;8.53;;;5.17;;
12155;SDS011;6141;49.092;8.516;2022-11-20T10:43:12;7.23;;;5.80;;
12155;SDS011;6141;49.092;8.516;2022-11-20T10:45:46;5.77;;;5.17;;
12155;SDS011;6141;49.092;8.516;2022-11-20T10:48:23;10.83;;;5.50;;
12155;SDS011;6141;49.092;8.516;2022-11-20T10:51:02;7.60;;;5.27;;
12155;SDS011;6141;49.092;8.516;2022-11-20T10:53:50;8.97;;;5.23;;
12155;SDS011;6141;49.092;8.516;2022-11-20T10:56:29;5.50;;;5.00;;
12155;SDS011;6141;49.092;8.516;2022-11-20T10:59:08;6.93;;;4.23;;
12155;SDS011;6141;49.092;8.516;2022-11-20T11:01:53;5.97;;;4.27;;
12155;SDS011;6141;49.092;8.516;2022-11-20T11:04:35;4.57;;;4.10;;
12155;SDS011;6141;49.092;8.516;2022-11-20T11:07:09;7.17;;;4.17;;
12155;SDS011;6141;49.092;8.516;2022-11-20T11:09:42;6.23;;;3.80;;
12155;SDS011;6141;49.092;8.516;2022-11-20T11:12:14;6.40;;;4.20;;
12155;SDS011;6141;49.092;8.516;2022-11-20T11:14:44;5.13;;;3.90;;
12155;SDS011;6141;49.092;8.516;2022-11-20T11:17:22;7.90;;;3.73;;
12155;SDS011;6141;49.092;8.516;2022-11-20T11:20:03;6.20;;;4.03;;
12155;SDS011;6141;49.092;8.516;2022-11-20T11:22:34;6.00;;;3.60;;
12155;SDS011;6141;49.092;8.516;2022-11-20T11:28:05;5.40;;;3.50;;
12155;SDS011;6141;49.092;8.516;2022-11-20T11:30:48;7.27;;;3.30;;
12155;SDS011;6141;49.092;8.516;2022-11-20T11:33:18;8.27;;;3.67;;
12155;SDS011;6141;49.092;8.516;2022-11-20T11:35:50;6.93;;;3.70;;
12155;SDS011;6141;49.092;8.516;2022-11-20T11:38:27;8.40;;;3.63;;
12155;SDS011;6141;49.092;8.516;2022-11-20T11:40:58;6.77;;;3.53;;
12155;SDS011;6141;49.092;8.516;2022-11-20T11:43:29;5.00;;;2.70;;
12155;SDS011;6141;49.092;8.516;2022-11-20T11:46:26;5.80;;;2.90;;
12155;SDS011;6141;49.092;8.516;2022-11-20T11:48:59;4.47;;;2.70;;
12155;SDS011;6141;49.092;8.516;2022-11-20T11:51:33;7.77;;;2.80;;
12155;SDS011;6141;49.092;8.516;2022-11-20T11:54:10;6.03;;;2.83;;
12155;SDS011;6141;49.092;8.516;2022-11-20T11:56:44;7.33;;;2.40;;
12155;SDS011;6141;49.092;8.516;2022-11-20T11:59:15;3.43;;;2.40;;
12155;SDS011;6141;49.092;8.516;2022-11-20T12:01:54;6.10;;;2.20;;
12155;SDS011;6141;49.092;8.516;2022-11-20T12:04:28;2.93;;;2.23;;
12155;SDS011;6141;49.092;8.516;2022-11-20T12:07:10;4.50;;;2.50;;
12155;SDS011;6141;49.092;8.516;2022-11-20T12:10:04;5.70;;;2.33;;
12155;SDS011;6141;49.092;8.516;2022-11-20T12:12:41;4.90;;;2.50;;
12155;SDS011;6141;49.092;8.516;2022-11-20T12:15:16;4.77;;;2.40;;
12155;SDS011;6141;49.092;8.516;2022-11-20T12:17:57;6.47;;;2.57;;
12155;SDS011;6141;49.092;8.516;2022-11-20T12:20:27;8.17;;;2.90;;
12155;SDS011;6141;49.092;8.516;2022-11-20T12:23:02;6.60;;;2.63;;
12155;SDS011;6141;49.092;8.516;2022-11-20T12:25:39;3.90;;;2.30;;
12155;SDS011;6141;49.092;8.516;2022-11-20T12:28:18;5.00;;;2.57;;
12155;SDS011;6141;49.092;8.516;2022-11-20T12:31:05;4.33;;;2.20;;
12155;SDS011;6141;49.092;8.516;2022-11-20T12:33:51;5.63;;;1.90;;
12155;SDS011;6141;49.092;8.516;2022-11-20T12:36:29;5.40;;;1.77;;
12155;SDS011;6141;49.092;8.516;2022-11-20T12:39:15;5.33;;;1.83;;
12155;SDS011;6141;49.092;8.516;2022-11-20T12:42:08;5.23;;;1.70;;
